CheckWX is a tool to help pilots better visualize weather data.  It is not intended as a substitute for an official pre-flight weather briefing.

18:19:42 UTC

OJAM TAF
Amman-Marka International Airport
Amman, Jordan
TAF OJAM 081650Z 0818/0924 29006KT 7000 NSC BECMG 0905/0907 30012KT 5000 HZ

Jul-8@
18:00 UTC

Jul-8 @ 18:00 UTC

Jul-9@
05:00 UTC

Jul-9 @ 05:00 UTC

TAF OJAM 081650Z 0818/0924 29006KT 7000 NSC

Expired

Wind
  • 290° at 6 KTS
Cloud Levels
  • No significant clouds

Jul-9@
05:00 UTC

Jul-9 @ 05:00 UTC

Jul-10@
00:00 UTC

Jul-10 @ 00:00 UTC

BECMG 0905/0907 30012KT 5000 HZ

Becoming

Becoming Conditions expected by Thu, Jul 9, 2020 @ 07:00 UTC

Wind
  • 300° at 12 KTS
Conditions
Haze
Cloud Levels
  • No significant clouds